sensor_id;sensor_type;location;lat;lon;timestamp;P1;durP1;ratioP1;P2;durP2;ratioP2
12635;SDS011;6383;50.830;7.210;2023-08-06T00:01:22;10.57;;;7.05;;
12635;SDS011;6383;50.830;7.210;2023-08-06T00:03:51;11.38;;;6.95;;
12635;SDS011;6383;50.830;7.210;2023-08-06T00:06:20;8.98;;;6.60;;
12635;SDS011;6383;50.830;7.210;2023-08-06T00:08:48;14.98;;;7.40;;
12635;SDS011;6383;50.830;7.210;2023-08-06T00:11:19;14.40;;;8.57;;
12635;SDS011;6383;50.830;7.210;2023-08-06T00:13:47;15.40;;;8.20;;
12635;SDS011;6383;50.830;7.210;2023-08-06T00:16:16;13.77;;;7.75;;
12635;SDS011;6383;50.830;7.210;2023-08-06T00:18:45;9.10;;;7.40;;
12635;SDS011;6383;50.830;7.210;2023-08-06T00:21:13;12.23;;;7.68;;
12635;SDS011;6383;50.830;7.210;2023-08-06T00:23:42;14.45;;;8.38;;
12635;SDS011;6383;50.830;7.210;2023-08-06T00:26:09;16.93;;;8.87;;
12635;SDS011;6383;50.830;7.210;2023-08-06T00:28:39;13.43;;;7.78;;
12635;SDS011;6383;50.830;7.210;2023-08-06T00:31:07;13.23;;;8.50;;
12635;SDS011;6383;50.830;7.210;2023-08-06T00:33:34;12.20;;;7.95;;
12635;SDS011;6383;50.830;7.210;2023-08-06T00:36:02;14.82;;;8.35;;
12635;SDS011;6383;50.830;7.210;2023-08-06T00:38:30;13.23;;;8.07;;
12635;SDS011;6383;50.830;7.210;2023-08-06T00:40:57;15.40;;;8.20;;
12635;SDS011;6383;50.830;7.210;2023-08-06T00:43:26;13.65;;;8.90;;
12635;SDS011;6383;50.830;7.210;2023-08-06T00:45:56;14.43;;;8.50;;
12635;SDS011;6383;50.830;7.210;2023-08-06T00:48:24;11.15;;;7.45;;
12635;SDS011;6383;50.830;7.210;2023-08-06T00:50:53;11.80;;;8.60;;
12635;SDS011;6383;50.830;7.210;2023-08-06T00:53:22;11.85;;;8.63;;
12635;SDS011;6383;50.830;7.210;2023-08-06T00:55:48;11.17;;;8.27;;
12635;SDS011;6383;50.830;7.210;2023-08-06T00:58:17;12.57;;;8.23;;
12635;SDS011;6383;50.830;7.210;2023-08-06T01:00:46;18.83;;;9.53;;
12635;SDS011;6383;50.830;7.210;2023-08-06T01:03:16;14.73;;;8.82;;
12635;SDS011;6383;50.830;7.210;2023-08-06T01:05:42;13.05;;;8.63;;
12635;SDS011;6383;50.830;7.210;2023-08-06T01:08:15;14.57;;;8.48;;
12635;SDS011;6383;50.830;7.210;2023-08-06T01:10:47;10.80;;;8.57;;
12635;SDS011;6383;50.830;7.210;2023-08-06T01:13:18;9.88;;;7.50;;
12635;SDS011;6383;50.830;7.210;2023-08-06T01:15:49;14.90;;;8.50;;
12635;SDS011;6383;50.830;7.210;2023-08-06T01:18:19;13.05;;;8.30;;
12635;SDS011;6383;50.830;7.210;2023-08-06T01:20:48;9.43;;;7.63;;
12635;SDS011;6383;50.830;7.210;2023-08-06T01:23:16;11.43;;;7.53;;
12635;SDS011;6383;50.830;7.210;2023-08-06T01:25:46;12.50;;;7.38;;
12635;SDS011;6383;50.830;7.210;2023-08-06T01:28:18;10.73;;;7.43;;
12635;SDS011;6383;50.830;7.210;2023-08-06T01:30:49;10.20;;;6.88;;
12635;SDS011;6383;50.830;7.210;2023-08-06T01:33:18;10.13;;;6.75;;
12635;SDS011;6383;50.830;7.210;2023-08-06T01:35:48;10.43;;;5.80;;
12635;SDS011;6383;50.830;7.210;2023-08-06T01:38:16;12.10;;;6.93;;
12635;SDS011;6383;50.830;7.210;2023-08-06T01:40:45;9.07;;;6.47;;
12635;SDS011;6383;50.830;7.210;2023-08-06T01:43:14;8.95;;;6.28;;
12635;SDS011;6383;50.830;7.210;2023-08-06T01:45:41;14.90;;;6.32;;
12635;SDS011;6383;50.830;7.210;2023-08-06T01:48:08;10.20;;;5.90;;
12635;SDS011;6383;50.830;7.210;2023-08-06T01:50:37;10.77;;;6.47;;
12635;SDS011;6383;50.830;7.210;2023-08-06T01:53:07;9.32;;;5.90;;
12635;SDS011;6383;50.830;7.210;2023-08-06T01:55:36;9.50;;;6.15;;
12635;SDS011;6383;50.830;7.210;2023-08-06T01:58:04;6.13;;;5.50;;
12635;SDS011;6383;50.830;7.210;2023-08-06T02:00:33;8.60;;;6.10;;
12635;SDS011;6383;50.830;7.210;2023-08-06T02:03:01;13.60;;;5.93;;
12635;SDS011;6383;50.830;7.210;2023-08-06T02:05:29;9.25;;;5.80;;
12635;SDS011;6383;50.830;7.210;2023-08-06T02:07:57;11.27;;;6.28;;
12635;SDS011;6383;50.830;7.210;2023-08-06T02:10:26;10.68;;;6.40;;
12635;SDS011;6383;50.830;7.210;2023-08-06T02:12:54;11.30;;;6.43;;
12635;SDS011;6383;50.830;7.210;2023-08-06T02:15:22;10.57;;;6.35;;
12635;SDS011;6383;50.830;7.210;2023-08-06T02:17:50;10.90;;;6.80;;
12635;SDS011;6383;50.830;7.210;2023-08-06T02:20:19;7.67;;;6.13;;
12635;SDS011;6383;50.830;7.210;2023-08-06T02:22:47;9.73;;;5.95;;
12635;SDS011;6383;50.830;7.210;2023-08-06T02:25:15;9.75;;;6.25;;
12635;SDS011;6383;50.830;7.210;2023-08-06T02:27:45;8.43;;;5.82;;
12635;SDS011;6383;50.830;7.210;2023-08-06T02:30:12;8.18;;;5.78;;
12635;SDS011;6383;50.830;7.210;2023-08-06T02:32:41;9.45;;;6.40;;
12635;SDS011;6383;50.830;7.210;2023-08-06T02:35:10;9.13;;;6.35;;
12635;SDS011;6383;50.830;7.210;2023-08-06T02:37:37;10.70;;;5.85;;
12635;SDS011;6383;50.830;7.210;2023-08-06T02:40:07;11.32;;;6.15;;
12635;SDS011;6383;50.830;7.210;2023-08-06T02:42:35;12.45;;;6.90;;
12635;SDS011;6383;50.830;7.210;2023-08-06T02:45:19;11.10;;;6.80;;
12635;SDS011;6383;50.830;7.210;2023-08-06T02:47:47;10.17;;;6.60;;
12635;SDS011;6383;50.830;7.210;2023-08-06T02:50:15;11.88;;;6.65;;
12635;SDS011;6383;50.830;7.210;2023-08-06T02:52:42;11.57;;;6.77;;
12635;SDS011;6383;50.830;7.210;2023-08-06T02:55:11;13.48;;;7.00;;
12635;SDS011;6383;50.830;7.210;2023-08-06T02:57:40;12.48;;;6.25;;
12635;SDS011;6383;50.830;7.210;2023-08-06T03:00:09;10.77;;;6.63;;
12635;SDS011;6383;50.830;7.210;2023-08-06T03:02:40;10.00;;;6.05;;
12635;SDS011;6383;50.830;7.210;2023-08-06T03:05:08;10.40;;;5.95;;
12635;SDS011;6383;50.830;7.210;2023-08-06T03:07:36;11.15;;;6.55;;
12635;SDS011;6383;50.830;7.210;2023-08-06T03:10:05;7.13;;;5.28;;
12635;SDS011;6383;50.830;7.210;2023-08-06T03:12:33;10.32;;;5.80;;
12635;SDS011;6383;50.830;7.210;2023-08-06T03:15:00;10.87;;;6.27;;
12635;SDS011;6383;50.830;7.210;2023-08-06T03:17:28;11.13;;;6.00;;
12635;SDS011;6383;50.830;7.210;2023-08-06T03:19:59;14.60;;;6.30;;
12635;SDS011;6383;50.830;7.210;2023-08-06T03:22:26;7.95;;;5.88;;
12635;SDS011;6383;50.830;7.210;2023-08-06T03:24:54;8.48;;;6.35;;
12635;SDS011;6383;50.830;7.210;2023-08-06T03:27:22;11.30;;;6.07;;
12635;SDS011;6383;50.830;7.210;2023-08-06T03:29:51;10.05;;;5.45;;
12635;SDS011;6383;50.830;7.210;2023-08-06T03:32:18;10.10;;;6.00;;
12635;SDS011;6383;50.830;7.210;2023-08-06T03:34:47;7.93;;;5.50;;
12635;SDS011;6383;50.830;7.210;2023-08-06T03:37:17;12.43;;;6.40;;
12635;SDS011;6383;50.830;7.210;2023-08-06T03:39:46;10.15;;;5.38;;
12635;SDS011;6383;50.830;7.210;2023-08-06T03:42:13;10.10;;;5.82;;
12635;SDS011;6383;50.830;7.210;2023-08-06T03:44:41;10.23;;;6.10;;
12635;SDS011;6383;50.830;7.210;2023-08-06T03:47:09;9.07;;;5.27;;
12635;SDS011;6383;50.830;7.210;2023-08-06T03:49:37;9.73;;;5.53;;
12635;SDS011;6383;50.830;7.210;2023-08-06T03:52:04;11.00;;;5.53;;
12635;SDS011;6383;50.830;7.210;2023-08-06T03:54:33;6.40;;;5.10;;
12635;SDS011;6383;50.830;7.210;2023-08-06T03:57:00;6.85;;;4.72;;
12635;SDS011;6383;50.830;7.210;2023-08-06T03:59:29;11.47;;;5.23;;
12635;SDS011;6383;50.830;7.210;2023-08-06T04:01:56;9.20;;;4.90;;
12635;SDS011;6383;50.830;7.210;2023-08-06T04:04:25;5.68;;;4.70;;
12635;SDS011;6383;50.830;7.210;2023-08-06T04:06:53;10.93;;;5.63;;
12635;SDS011;6383;50.830;7.210;2023-08-06T04:09:21;9.13;;;4.80;;
12635;SDS011;6383;50.830;7.210;2023-08-06T04:11:51;8.73;;;5.20;;
12635;SDS011;6383;50.830;7.210;2023-08-06T04:14:18;12.30;;;5.57;;
12635;SDS011;6383;50.830;7.210;2023-08-06T04:16:46;11.43;;;5.10;;
12635;SDS011;6383;50.830;7.210;2023-08-06T04:19:13;8.10;;;5.15;;
12635;SDS011;6383;50.830;7.210;2023-08-06T04:21:40;8.18;;;4.80;;
12635;SDS011;6383;50.830;7.210;2023-08-06T04:24:09;10.02;;;4.28;;
12635;SDS011;6383;50.830;7.210;2023-08-06T04:26:36;11.63;;;5.25;;
12635;SDS011;6383;50.830;7.210;2023-08-06T04:29:06;9.35;;;4.90;;
12635;SDS011;6383;50.830;7.210;2023-08-06T04:31:33;11.07;;;5.30;;
12635;SDS011;6383;50.830;7.210;2023-08-06T04:34:01;9.40;;;4.70;;
12635;SDS011;6383;50.830;7.210;2023-08-06T04:36:30;7.88;;;4.68;;
12635;SDS011;6383;50.830;7.210;2023-08-06T04:38:59;7.13;;;4.60;;
12635;SDS011;6383;50.830;7.210;2023-08-06T04:41:26;5.80;;;4.00;;
12635;SDS011;6383;50.830;7.210;2023-08-06T04:43:56;8.13;;;4.28;;
12635;SDS011;6383;50.830;7.210;2023-08-06T04:46:26;12.70;;;4.90;;
12635;SDS011;6383;50.830;7.210;2023-08-06T04:48:53;8.98;;;4.85;;
12635;SDS011;6383;50.830;7.210;2023-08-06T04:51:20;9.13;;;5.15;;
12635;SDS011;6383;50.830;7.210;2023-08-06T04:53:47;11.50;;;5.32;;
12635;SDS011;6383;50.830;7.210;2023-08-06T04:56:14;13.20;;;5.40;;
12635;SDS011;6383;50.830;7.210;2023-08-06T04:58:43;7.90;;;4.45;;
12635;SDS011;6383;50.830;7.210;2023-08-06T05:01:10;8.55;;;4.75;;
12635;SDS011;6383;50.830;7.210;2023-08-06T05:03:40;14.55;;;5.07;;
12635;SDS011;6383;50.830;7.210;2023-08-06T05:06:08;11.10;;;4.70;;
12635;SDS011;6383;50.830;7.210;2023-08-06T05:08:36;13.13;;;5.00;;
12635;SDS011;6383;50.830;7.210;2023-08-06T05:11:04;14.18;;;5.72;;
12635;SDS011;6383;50.830;7.210;2023-08-06T05:13:31;12.07;;;5.72;;
12635;SDS011;6383;50.830;7.210;2023-08-06T05:16:00;12.88;;;5.45;;
12635;SDS011;6383;50.830;7.210;2023-08-06T05:18:27;10.93;;;5.20;;
12635;SDS011;6383;50.830;7.210;2023-08-06T05:20:57;11.98;;;5.22;;
12635;SDS011;6383;50.830;7.210;2023-08-06T05:23:25;8.80;;;5.10;;
12635;SDS011;6383;50.830;7.210;2023-08-06T05:25:54;11.50;;;5.68;;
12635;SDS011;6383;50.830;7.210;2023-08-06T05:28:23;14.73;;;5.60;;
12635;SDS011;6383;50.830;7.210;2023-08-06T05:30:50;10.23;;;4.80;;
12635;SDS011;6383;50.830;7.210;2023-08-06T05:33:18;11.00;;;5.63;;
12635;SDS011;6383;50.830;7.210;2023-08-06T05:35:46;10.38;;;4.68;;
12635;SDS011;6383;50.830;7.210;2023-08-06T05:38:16;10.80;;;4.90;;
12635;SDS011;6383;50.830;7.210;2023-08-06T05:40:44;8.02;;;4.78;;
12635;SDS011;6383;50.830;7.210;2023-08-06T05:43:11;6.93;;;4.70;;
12635;SDS011;6383;50.830;7.210;2023-08-06T05:45:43;11.63;;;5.03;;
12635;SDS011;6383;50.830;7.210;2023-08-06T05:48:12;12.15;;;5.07;;
12635;SDS011;6383;50.830;7.210;2023-08-06T05:50:39;9.73;;;4.68;;
12635;SDS011;6383;50.830;7.210;2023-08-06T05:53:08;6.90;;;4.28;;
12635;SDS011;6383;50.830;7.210;2023-08-06T05:55:38;8.38;;;4.40;;
12635;SDS011;6383;50.830;7.210;2023-08-06T05:58:07;10.38;;;4.80;;
12635;SDS011;6383;50.830;7.210;2023-08-06T06:00:34;7.28;;;4.05;;
12635;SDS011;6383;50.830;7.210;2023-08-06T06:03:01;8.27;;;3.70;;
12635;SDS011;6383;50.830;7.210;2023-08-06T06:05:32;6.68;;;3.95;;
12635;SDS011;6383;50.830;7.210;2023-08-06T06:08:01;4.60;;;2.80;;
12635;SDS011;6383;50.830;7.210;2023-08-06T06:10:29;7.70;;;3.80;;
12635;SDS011;6383;50.830;7.210;2023-08-06T06:12:57;4.85;;;2.95;;
12635;SDS011;6383;50.830;7.210;2023-08-06T06:15:25;3.70;;;2.58;;
12635;SDS011;6383;50.830;7.210;2023-08-06T06:17:54;4.53;;;2.60;;
12635;SDS011;6383;50.830;7.210;2023-08-06T06:20:22;6.40;;;3.35;;
12635;SDS011;6383;50.830;7.210;2023-08-06T06:22:54;5.97;;;3.25;;
12635;SDS011;6383;50.830;7.210;2023-08-06T06:25:21;5.90;;;3.35;;
12635;SDS011;6383;50.830;7.210;2023-08-06T06:27:48;7.17;;;4.03;;
12635;SDS011;6383;50.830;7.210;2023-08-06T06:30:17;8.18;;;4.32;;
12635;SDS011;6383;50.830;7.210;2023-08-06T06:32:44;7.28;;;3.65;;
12635;SDS011;6383;50.830;7.210;2023-08-06T06:35:13;7.13;;;4.15;;
12635;SDS011;6383;50.830;7.210;2023-08-06T06:37:41;6.32;;;2.90;;
12635;SDS011;6383;50.830;7.210;2023-08-06T06:40:10;5.43;;;3.05;;
12635;SDS011;6383;50.830;7.210;2023-08-06T06:42:38;4.68;;;2.83;;
12635;SDS011;6383;50.830;7.210;2023-08-06T06:45:07;6.57;;;3.50;;
12635;SDS011;6383;50.830;7.210;2023-08-06T06:47:38;5.32;;;3.08;;
12635;SDS011;6383;50.830;7.210;2023-08-06T06:50:06;4.07;;;2.85;;
12635;SDS011;6383;50.830;7.210;2023-08-06T06:52:34;6.18;;;2.85;;
12635;SDS011;6383;50.830;7.210;2023-08-06T06:55:02;7.63;;;3.55;;
12635;SDS011;6383;50.830;7.210;2023-08-06T06:57:29;3.50;;;2.47;;
12635;SDS011;6383;50.830;7.210;2023-08-06T06:59:57;5.78;;;2.95;;
12635;SDS011;6383;50.830;7.210;2023-08-06T07:02:25;2.63;;;1.88;;
12635;SDS011;6383;50.830;7.210;2023-08-06T07:04:55;3.25;;;2.08;;
12635;SDS011;6383;50.830;7.210;2023-08-06T07:07:23;4.05;;;2.00;;
12635;SDS011;6383;50.830;7.210;2023-08-06T07:09:51;2.45;;;2.10;;
12635;SDS011;6383;50.830;7.210;2023-08-06T07:12:20;4.15;;;2.17;;
12635;SDS011;6383;50.830;7.210;2023-08-06T07:14:52;2.30;;;1.92;;
12635;SDS011;6383;50.830;7.210;2023-08-06T07:17:19;2.45;;;1.85;;
12635;SDS011;6383;50.830;7.210;2023-08-06T07:19:47;3.30;;;2.00;;
12635;SDS011;6383;50.830;7.210;2023-08-06T07:22:16;4.45;;;2.58;;
12635;SDS011;6383;50.830;7.210;2023-08-06T07:24:43;3.72;;;2.50;;
12635;SDS011;6383;50.830;7.210;2023-08-06T07:27:12;3.70;;;2.60;;
12635;SDS011;6383;50.830;7.210;2023-08-06T07:29:39;4.87;;;2.80;;
12635;SDS011;6383;50.830;7.210;2023-08-06T07:32:08;3.42;;;2.60;;
12635;SDS011;6383;50.830;7.210;2023-08-06T07:34:37;3.00;;;2.75;;
12635;SDS011;6383;50.830;7.210;2023-08-06T07:37:04;5.40;;;3.00;;
12635;SDS011;6383;50.830;7.210;2023-08-06T07:39:34;4.30;;;2.90;;
12635;SDS011;6383;50.830;7.210;2023-08-06T07:42:02;4.00;;;2.58;;
12635;SDS011;6383;50.830;7.210;2023-08-06T07:44:32;3.05;;;2.30;;
12635;SDS011;6383;50.830;7.210;2023-08-06T07:47:00;2.25;;;2.05;;
12635;SDS011;6383;50.830;7.210;2023-08-06T07:49:28;2.70;;;1.83;;
12635;SDS011;6383;50.830;7.210;2023-08-06T07:51:55;4.15;;;2.20;;
12635;SDS011;6383;50.830;7.210;2023-08-06T07:54:24;4.75;;;2.53;;
12635;SDS011;6383;50.830;7.210;2023-08-06T07:56:54;5.13;;;2.65;;
12635;SDS011;6383;50.830;7.210;2023-08-06T07:59:22;5.20;;;3.30;;
12635;SDS011;6383;50.830;7.210;2023-08-06T08:01:50;5.43;;;3.50;;
12635;SDS011;6383;50.830;7.210;2023-08-06T08:04:19;4.90;;;4.00;;
12635;SDS011;6383;50.830;7.210;2023-08-06T08:06:48;6.05;;;3.95;;
12635;SDS011;6383;50.830;7.210;2023-08-06T08:09:16;6.38;;;4.20;;
12635;SDS011;6383;50.830;7.210;2023-08-06T08:11:45;5.05;;;4.15;;
12635;SDS011;6383;50.830;7.210;2023-08-06T08:14:15;10.48;;;5.20;;
12635;SDS011;6383;50.830;7.210;2023-08-06T08:16:43;7.97;;;4.63;;
12635;SDS011;6383;50.830;7.210;2023-08-06T08:19:12;8.23;;;5.50;;
12635;SDS011;6383;50.830;7.210;2023-08-06T08:21:40;8.68;;;5.22;;
12635;SDS011;6383;50.830;7.210;2023-08-06T08:24:09;6.20;;;5.30;;
12635;SDS011;6383;50.830;7.210;2023-08-06T08:26:37;6.43;;;4.85;;
12635;SDS011;6383;50.830;7.210;2023-08-06T08:29:06;9.25;;;5.85;;
12635;SDS011;6383;50.830;7.210;2023-08-06T08:31:34;7.93;;;5.82;;
12635;SDS011;6383;50.830;7.210;2023-08-06T08:34:04;8.18;;;5.93;;
12635;SDS011;6383;50.830;7.210;2023-08-06T08:36:32;5.97;;;5.13;;
12635;SDS011;6383;50.830;7.210;2023-08-06T08:39:01;7.30;;;5.80;;
12635;SDS011;6383;50.830;7.210;2023-08-06T08:41:30;6.43;;;5.68;;
12635;SDS011;6383;50.830;7.210;2023-08-06T08:43:59;6.35;;;4.90;;
12635;SDS011;6383;50.830;7.210;2023-08-06T08:46:27;7.53;;;5.18;;
12635;SDS011;6383;50.830;7.210;2023-08-06T08:48:59;7.43;;;5.72;;
12635;SDS011;6383;50.830;7.210;2023-08-06T08:51:27;9.68;;;5.43;;
12635;SDS011;6383;50.830;7.210;2023-08-06T08:53:56;6.40;;;5.18;;
12635;SDS011;6383;50.830;7.210;2023-08-06T08:56:25;5.17;;;4.47;;
12635;SDS011;6383;50.830;7.210;2023-08-06T08:58:53;7.53;;;5.05;;
12635;SDS011;6383;50.830;7.210;2023-08-06T09:01:22;8.13;;;5.60;;
12635;SDS011;6383;50.830;7.210;2023-08-06T09:03:50;8.52;;;6.07;;
12635;SDS011;6383;50.830;7.210;2023-08-06T09:06:21;9.27;;;6.22;;
12635;SDS011;6383;50.830;7.210;2023-08-06T09:08:50;6.90;;;6.20;;
12635;SDS011;6383;50.830;7.210;2023-08-06T09:11:19;6.78;;;6.00;;
12635;SDS011;6383;50.830;7.210;2023-08-06T09:13:47;6.65;;;5.93;;
12635;SDS011;6383;50.830;7.210;2023-08-06T09:16:14;7.55;;;5.97;;
12635;SDS011;6383;50.830;7.210;2023-08-06T09:18:41;8.25;;;6.15;;
12635;SDS011;6383;50.830;7.210;2023-08-06T09:21:13;6.38;;;5.28;;
12635;SDS011;6383;50.830;7.210;2023-08-06T09:23:43;8.80;;;7.15;;
12635;SDS011;6383;50.830;7.210;2023-08-06T09:26:12;7.93;;;7.13;;
12635;SDS011;6383;50.830;7.210;2023-08-06T09:28:40;11.10;;;7.35;;
12635;SDS011;6383;50.830;7.210;2023-08-06T09:31:10;9.13;;;7.50;;
12635;SDS011;6383;50.830;7.210;2023-08-06T09:33:39;13.32;;;7.90;;
12635;SDS011;6383;50.830;7.210;2023-08-06T09:36:08;11.53;;;7.00;;
12635;SDS011;6383;50.830;7.210;2023-08-06T09:38:37;12.77;;;7.50;;
12635;SDS011;6383;50.830;7.210;2023-08-06T09:41:06;14.05;;;7.45;;
12635;SDS011;6383;50.830;7.210;2023-08-06T09:43:41;15.20;;;7.30;;
12635;SDS011;6383;50.830;7.210;2023-08-06T09:46:11;9.00;;;6.90;;
12635;SDS011;6383;50.830;7.210;2023-08-06T09:48:40;11.52;;;7.18;;
12635;SDS011;6383;50.830;7.210;2023-08-06T09:51:09;6.72;;;5.68;;
12635;SDS011;6383;50.830;7.210;2023-08-06T09:53:40;6.73;;;5.30;;
12635;SDS011;6383;50.830;7.210;2023-08-06T09:56:11;5.13;;;4.68;;
12635;SDS011;6383;50.830;7.210;2023-08-06T09:58:41;4.60;;;3.38;;
12635;SDS011;6383;50.830;7.210;2023-08-06T10:01:10;4.38;;;3.55;;
12635;SDS011;6383;50.830;7.210;2023-08-06T10:03:41;2.88;;;2.63;;
12635;SDS011;6383;50.830;7.210;2023-08-06T10:06:11;3.55;;;3.25;;
12635;SDS011;6383;50.830;7.210;2023-08-06T10:08:40;4.07;;;3.25;;
12635;SDS011;6383;50.830;7.210;2023-08-06T10:11:13;2.97;;;2.78;;
12635;SDS011;6383;50.830;7.210;2023-08-06T10:13:43;3.13;;;2.25;;
12635;SDS011;6383;50.830;7.210;2023-08-06T10:16:12;2.58;;;2.38;;
12635;SDS011;6383;50.830;7.210;2023-08-06T10:18:41;3.70;;;2.25;;
12635;SDS011;6383;50.830;7.210;2023-08-06T10:21:10;4.20;;;3.80;;
12635;SDS011;6383;50.830;7.210;2023-08-06T10:23:40;3.20;;;2.78;;
12635;SDS011;6383;50.830;7.210;2023-08-06T10:26:09;3.00;;;2.80;;
12635;SDS011;6383;50.830;7.210;2023-08-06T10:28:39;4.10;;;3.80;;
12635;SDS011;6383;50.830;7.210;2023-08-06T10:31:08;4.43;;;4.13;;
12635;SDS011;6383;50.830;7.210;2023-08-06T10:33:40;5.30;;;4.90;;
12635;SDS011;6383;50.830;7.210;2023-08-06T10:36:09;6.15;;;5.65;;
12635;SDS011;6383;50.830;7.210;2023-08-06T10:38:44;5.18;;;4.78;;
12635;SDS011;6383;50.830;7.210;2023-08-06T10:41:16;4.00;;;3.65;;
12635;SDS011;6383;50.830;7.210;2023-08-06T10:43:46;1.90;;;1.80;;
12635;SDS011;6383;50.830;7.210;2023-08-06T10:46:21;1.38;;;1.27;;
12635;SDS011;6383;50.830;7.210;2023-08-06T10:48:50;1.00;;;1.00;;
12635;SDS011;6383;50.830;7.210;2023-08-06T10:51:22;1.20;;;1.20;;
12635;SDS011;6383;50.830;7.210;2023-08-06T10:53:51;2.90;;;1.50;;
12635;SDS011;6383;50.830;7.210;2023-08-06T10:56:20;3.13;;;1.70;;
12635;SDS011;6383;50.830;7.210;2023-08-06T10:58:51;4.82;;;2.30;;
12635;SDS011;6383;50.830;7.210;2023-08-06T11:01:20;3.70;;;2.50;;
12635;SDS011;6383;50.830;7.210;2023-08-06T11:03:50;2.60;;;2.38;;
12635;SDS011;6383;50.830;7.210;2023-08-06T11:06:20;7.85;;;3.70;;
12635;SDS011;6383;50.830;7.210;2023-08-06T11:08:50;14.77;;;5.85;;
12635;SDS011;6383;50.830;7.210;2023-08-06T11:11:20;4.20;;;3.00;;
12635;SDS011;6383;50.830;7.210;2023-08-06T11:13:51;4.80;;;2.60;;
12635;SDS011;6383;50.830;7.210;2023-08-06T11:16:20;4.13;;;2.58;;
12635;SDS011;6383;50.830;7.210;2023-08-06T11:18:50;6.15;;;3.25;;
12635;SDS011;6383;50.830;7.210;2023-08-06T11:21:20;3.83;;;2.77;;
12635;SDS011;6383;50.830;7.210;2023-08-06T11:23:49;5.00;;;2.63;;
12635;SDS011;6383;50.830;7.210;2023-08-06T11:26:18;3.42;;;2.58;;
12635;SDS011;6383;50.830;7.210;2023-08-06T11:28:47;4.97;;;3.20;;
12635;SDS011;6383;50.830;7.210;2023-08-06T11:31:20;4.32;;;3.03;;
12635;SDS011;6383;50.830;7.210;2023-08-06T11:33:49;4.27;;;2.40;;
12635;SDS011;6383;50.830;7.210;2023-08-06T11:36:28;4.13;;;2.67;;
12635;SDS011;6383;50.830;7.210;2023-08-06T11:38:56;4.20;;;3.30;;
12635;SDS011;6383;50.830;7.210;2023-08-06T11:41:27;5.18;;;3.05;;
12635;SDS011;6383;50.830;7.210;2023-08-06T11:43:56;5.78;;;2.85;;
12635;SDS011;6383;50.830;7.210;2023-08-06T11:46:26;5.18;;;2.60;;
12635;SDS011;6383;50.830;7.210;2023-08-06T11:48:55;5.20;;;2.50;;
12635;SDS011;6383;50.830;7.210;2023-08-06T11:51:24;5.43;;;2.45;;
12635;SDS011;6383;50.830;7.210;2023-08-06T11:53:54;5.30;;;2.53;;
12635;SDS011;6383;50.830;7.210;2023-08-06T11:56:23;4.38;;;2.40;;
12635;SDS011;6383;50.830;7.210;2023-08-06T11:58:53;6.68;;;2.80;;
12635;SDS011;6383;50.830;7.210;2023-08-06T12:01:22;8.27;;;2.78;;
12635;SDS011;6383;50.830;7.210;2023-08-06T12:03:53;9.30;;;2.30;;
12635;SDS011;6383;50.830;7.210;2023-08-06T12:06:26;5.60;;;2.70;;
12635;SDS011;6383;50.830;7.210;2023-08-06T12:08:55;6.90;;;2.30;;
12635;SDS011;6383;50.830;7.210;2023-08-06T12:11:24;6.53;;;2.08;;
12635;SDS011;6383;50.830;7.210;2023-08-06T12:13:54;5.75;;;1.95;;
12635;SDS011;6383;50.830;7.210;2023-08-06T12:16:24;4.88;;;1.70;;
12635;SDS011;6383;50.830;7.210;2023-08-06T12:18:54;5.38;;;1.75;;
12635;SDS011;6383;50.830;7.210;2023-08-06T12:21:23;5.75;;;1.90;;
12635;SDS011;6383;50.830;7.210;2023-08-06T12:23:51;6.35;;;2.30;;
12635;SDS011;6383;50.830;7.210;2023-08-06T12:26:20;6.67;;;2.60;;
12635;SDS011;6383;50.830;7.210;2023-08-06T12:28:49;6.13;;;2.50;;
12635;SDS011;6383;50.830;7.210;2023-08-06T12:31:17;5.72;;;2.45;;
12635;SDS011;6383;50.830;7.210;2023-08-06T12:33:46;6.18;;;2.55;;
12635;SDS011;6383;50.830;7.210;2023-08-06T12:36:16;6.53;;;2.90;;
12635;SDS011;6383;50.830;7.210;2023-08-06T12:38:45;5.70;;;2.50;;
12635;SDS011;6383;50.830;7.210;2023-08-06T12:41:14;6.85;;;3.03;;
12635;SDS011;6383;50.830;7.210;2023-08-06T12:43:43;6.70;;;3.23;;
12635;SDS011;6383;50.830;7.210;2023-08-06T12:46:11;9.40;;;2.57;;
12635;SDS011;6383;50.830;7.210;2023-08-06T12:48:40;7.30;;;3.07;;
12635;SDS011;6383;50.830;7.210;2023-08-06T12:51:09;6.35;;;3.00;;
12635;SDS011;6383;50.830;7.210;2023-08-06T12:53:39;4.85;;;2.90;;
12635;SDS011;6383;50.830;7.210;2023-08-06T12:56:08;7.43;;;2.30;;
12635;SDS011;6383;50.830;7.210;2023-08-06T12:58:36;5.05;;;2.53;;
12635;SDS011;6383;50.830;7.210;2023-08-06T13:01:04;5.70;;;2.20;;
12635;SDS011;6383;50.830;7.210;2023-08-06T13:03:32;8.98;;;3.33;;
12635;SDS011;6383;50.830;7.210;2023-08-06T13:06:01;5.50;;;2.90;;
12635;SDS011;6383;50.830;7.210;2023-08-06T13:08:30;9.32;;;2.60;;
12635;SDS011;6383;50.830;7.210;2023-08-06T13:11:00;7.95;;;3.10;;
12635;SDS011;6383;50.830;7.210;2023-08-06T13:13:28;9.90;;;3.28;;
12635;SDS011;6383;50.830;7.210;2023-08-06T13:15:57;7.80;;;3.15;;
12635;SDS011;6383;50.830;7.210;2023-08-06T13:18:26;9.50;;;2.80;;
12635;SDS011;6383;50.830;7.210;2023-08-06T13:20:56;10.70;;;3.47;;
12635;SDS011;6383;50.830;7.210;2023-08-06T13:23:25;9.52;;;3.20;;
12635;SDS011;6383;50.830;7.210;2023-08-06T13:25:53;7.30;;;3.40;;
12635;SDS011;6383;50.830;7.210;2023-08-06T13:28:24;7.97;;;3.70;;
12635;SDS011;6383;50.830;7.210;2023-08-06T13:30:52;8.47;;;3.70;;
12635;SDS011;6383;50.830;7.210;2023-08-06T13:33:21;9.73;;;3.53;;
12635;SDS011;6383;50.830;7.210;2023-08-06T13:35:50;8.02;;;3.75;;
12635;SDS011;6383;50.830;7.210;2023-08-06T13:38:19;6.15;;;3.58;;
12635;SDS011;6383;50.830;7.210;2023-08-06T13:40:47;5.82;;;3.75;;
12635;SDS011;6383;50.830;7.210;2023-08-06T13:43:16;9.75;;;3.80;;
12635;SDS011;6383;50.830;7.210;2023-08-06T13:45:47;8.30;;;3.23;;
12635;SDS011;6383;50.830;7.210;2023-08-06T13:48:16;6.93;;;3.97;;
12635;SDS011;6383;50.830;7.210;2023-08-06T13:50:45;7.38;;;4.63;;
12635;SDS011;6383;50.830;7.210;2023-08-06T13:53:14;10.00;;;4.22;;
12635;SDS011;6383;50.830;7.210;2023-08-06T13:55:42;9.18;;;4.53;;
12635;SDS011;6383;50.830;7.210;2023-08-06T13:58:11;6.05;;;4.40;;
12635;SDS011;6383;50.830;7.210;2023-08-06T14:00:40;7.23;;;4.10;;
12635;SDS011;6383;50.830;7.210;2023-08-06T14:03:10;8.57;;;4.65;;
12635;SDS011;6383;50.830;7.210;2023-08-06T14:05:39;9.18;;;5.10;;
12635;SDS011;6383;50.830;7.210;2023-08-06T14:08:06;8.38;;;5.18;;
12635;SDS011;6383;50.830;7.210;2023-08-06T14:10:34;10.20;;;6.32;;
12635;SDS011;6383;50.830;7.210;2023-08-06T14:13:03;10.32;;;6.90;;
12635;SDS011;6383;50.830;7.210;2023-08-06T14:15:31;12.53;;;6.70;;
12635;SDS011;6383;50.830;7.210;2023-08-06T14:18:00;9.30;;;6.38;;
12635;SDS011;6383;50.830;7.210;2023-08-06T14:20:31;7.87;;;6.50;;
12635;SDS011;6383;50.830;7.210;2023-08-06T14:22:59;11.38;;;6.32;;
12635;SDS011;6383;50.830;7.210;2023-08-06T14:25:28;11.18;;;6.15;;
12635;SDS011;6383;50.830;7.210;2023-08-06T14:27:57;13.82;;;6.03;;
12635;SDS011;6383;50.830;7.210;2023-08-06T14:30:26;10.20;;;5.90;;
12635;SDS011;6383;50.830;7.210;2023-08-06T14:32:54;9.55;;;6.22;;
12635;SDS011;6383;50.830;7.210;2023-08-06T14:35:23;10.55;;;6.10;;
12635;SDS011;6383;50.830;7.210;2023-08-06T14:37:53;12.70;;;6.00;;
12635;SDS011;6383;50.830;7.210;2023-08-06T14:40:22;8.90;;;4.53;;
12635;SDS011;6383;50.830;7.210;2023-08-06T14:42:53;4.70;;;3.20;;
12635;SDS011;6383;50.830;7.210;2023-08-06T14:45:21;7.80;;;2.58;;
12635;SDS011;6383;50.830;7.210;2023-08-06T14:47:50;8.07;;;2.83;;
12635;SDS011;6383;50.830;7.210;2023-08-06T14:50:19;5.55;;;2.25;;
12635;SDS011;6383;50.830;7.210;2023-08-06T14:52:48;4.47;;;1.80;;
12635;SDS011;6383;50.830;7.210;2023-08-06T14:55:24;5.30;;;2.22;;
12635;SDS011;6383;50.830;7.210;2023-08-06T14:57:53;8.75;;;1.90;;
12635;SDS011;6383;50.830;7.210;2023-08-06T15:00:22;5.95;;;1.90;;
12635;SDS011;6383;50.830;7.210;2023-08-06T15:02:51;5.50;;;1.55;;
12635;SDS011;6383;50.830;7.210;2023-08-06T15:05:19;9.27;;;2.40;;
12635;SDS011;6383;50.830;7.210;2023-08-06T15:07:48;6.95;;;2.42;;